Alleghany, California
Current Conditions -  °F | °C
As of 8:52 PM on Tuesday 25 Nov 2014 (Local Time) from KBLU Reporting Station
Clear Clear  
Wind Chill: 53°   Ceiling: Unl
Heat Index: 53°   Visibility: 10mi
Dew Point: 34°   Wind: 3mph
Humidity: 48%   Direction: 90°E
Pressure: 30.49"   Gusts: NA
Location:  39.47°N, 120.85°W
Report Text: KBLU 260452Z AUTO 09003KT 10SM CLR 12/01 A3049 RMK AO2 SLP278 T01170011
Loading
Personal Weather Stations






























Interactive Weather Map New forecast layout! Learn more

10-Day Weather Forecast

Advertisements
Track Severe Weather on mobile